Logo AVAMET
Benvolgut visitant, si us plau, ingressa Recuperar contrasenya

Inforatge el Palomar

Dades diàries. Acumulats / Últims 30 dies disponibles

Data Temperatura (°C) Humitat rel. (%) Pressió rel. (hPa) Vent (km/h) Precipitació
Mínima Mitjana Màxima Amplitud
tèrmica
Mínima Mitjana Màxima Mínima Mitjana Màxima Predom. Mitjana Ràfega
màxima
Total
(mm)
Índex-n
Mínima Mitjana Màxima Mínima Mitjana Màxima n
0 a 1
P0 max
mm 5'
Dades mensuals acumulades fins l'últim dia disponible
01/2020 0,7 4,9 9,9 8,9 6,9 14,5 18,6 17,9 30 77 98 1.015 1.028 1.036   2,5 51,5 231,0
Dades anuals acumulades fins l'últim dia disponible
2020 0,7 4,9 9,9 8,9 6,9 14,5 18,6 17,9 30 77 98 1.015 1.028 1.036   2,5 51,5 231,0
Últims 30 dies disponibles
24-01-2020 6,4     8,7     10,8 4,4 91 94 97 1.023 1.024 1.026 ENE 0,5 9,7 0,2
23-01-2020 3,8     7,6     12,4 8,6 78 91 97 1.021 1.023 1.025 SW 1,3 9,7 0,2
22-01-2020 5,0     7,6     10,4 5,4 90 96 98 1.020 1.021 1.022 SW 0,8 9,7 0,2
21-01-2020 4,7     7,6     10,4 5,7 97 97 98 1.015 1.018 1.022 WSW 1,9 19,3 63,4 0,43 5,10
20-01-2020 0,7     4,7     6,9 6,2 97 97 97 1.020 1.021 1.022 NE 7,9 51,5 119,2 0,33 3,50
19-01-2020 4,8     7,9     13,8 9,0 68 84 97 1.018 1.020 1.023 NE 8,9 45,1 46,0 0,54 1,20
18-01-2020 8,1     11,8     15,8 7,7 50 65 77 1.023 1.030 1.035 WSW 4,0 29,0 0,0
17-01-2020 9,9     13,2     17,2 7,3 44 53 63 1.030 1.032 1.035 WSW 7,4 41,8 0,0
16-01-2020 6,8     12,2     18,6 11,8 51 68 85 1.028 1.030 1.031 WSW 2,4 16,1 0,0
15-01-2020 6,6     11,1     17,7 11,1 42 61 75 1.026 1.028 1.030 WSW 5,1 27,4 0,0
14-01-2020 6,0     10,2     16,1 10,1 35 53 68 1.023 1.025 1.026 WSW 6,0 25,7 0,0
13-01-2020 3,1     9,1     16,3 13,2 35 56 78 1.025 1.027 1.032 WSW 4,2 25,7 0,0
12-01-2020 3,1     7,7     15,8 12,7 30 62 83 1.031 1.032 1.033 SSE 0,6 8,0 0,0
11-01-2020 4,1     8,7     15,2 11,1 53 73 88 1.031 1.032 1.034 SSW 1,0 9,7 0,0
10-01-2020 7,8     9,8     13,6 5,8 51 75 92 1.025 1.028 1.031 WSW 3,2 32,2 1,0
09-01-2020 3,6     8,8     16,2 12,6 52 81 97 1.026 1.030 1.033 WSW 1,1 16,1 0,2
08-01-2020 5,1     8,6     13,4 8,3 58 80 96 1.030 1.032 1.034 NE 0,6 9,7 0,0
07-01-2020 3,4     8,6     16,9 13,5 48 81 96 1.030 1.032 1.034 SW 0,8 9,7 0,0
06-01-2020 6,2     9,5     16,1 9,9 49 80 92 1.030 1.031 1.033 SW 0,5 8,0 0,0
05-01-2020 4,2     9,4     17,1 12,9 45 73 90 1.029 1.031 1.033 E 0,6 9,7 0,0
04-01-2020 3,6     8,0     14,2 10,6 61 83 97 1.034 1.034 1.036 SW 0,8 11,3 0,4
03-01-2020 3,6     8,2     16,7 13,1 53 85 95 1.031 1.033 1.035 NE 0,5 11,3 0,0
02-01-2020 2,0     6,9     13,1 11,1 71 87 95 1.032 1.033 1.035 SW 0,5 8,0 0,2
01-01-2020 3,8     8,1     14,1 10,3 63 84 95 1.033 1.034 1.035 SW 0,5 6,4 0,0
31-12-2019 3,4     8,2     14,4 11,0 66 84 95 1.034 1.035 1.037 SSO 0,3 8,0 0,2
30-12-2019 6,4     9,5     15,1 8,7 60 84 96 1.034 1.035 1.037 WSW 0,5 8,0 0,0
29-12-2019 4,5     8,7     14,4 9,9 66 85 94 1.032 1.034 1.036 WSW 1,1 12,9 0,0
28-12-2019 3,7     8,8     14,7 11,0 63 86 95 1.031 1.032 1.034 NE 0,6 11,3 0,0
27-12-2019 7,0     12,1     19,5 12,5 54 69 85 1.030 1.031 1.033 E 1,0 11,3 0,0
26-12-2019 10,8     16,8     23,3 12,5 32 45 70 1.025 1.028 1.032 WSW 2,6 20,9 0,0
Últims 13 mesos disponibles
12/2019 3,4 9,0 15,6 12,5 10,3 16,9 23,6 20,2 45 71 95 1.006 1.022 1.035 WSW 5,6 90,1 110,0
11/2019 4,5 10,5 19,3 13,7 12,8 17,4 25,0 20,5 51 61 77 1.002 1.014 1.022 W 8,7 56,3 9,6
10/2019 10,2 14,9 19,8 19,1 14,4 24,8 32,7 22,5 41 70 93 1.011 1.019 1.025 WSW 2,9 37,0 53,8
09/2019 12,9 18,6 21,9 22,4 18,4 26,9 35,7 22,8 41 76 94 1.014 1.021 1.027 SSE 3,0 53,7 252,4
08/2019 16,9 21,0 25,8 26,5 27,5 33,4 40,7 23,8 28 66 83 1.014 1.019 1.023 SE 3,4 45,0 33,0
07/2019 19,4 21,4 24,9 27,0 27,6 33,5 39,3 19,9 35 62 81 1.010 1.017 1.025 SSE 4,3 48,3 1,0
06/2019 11,8 16,7 21,2 23,1 21,2 29,6 37,0 25,2 35 58 78 1.012 1.018 1.025 SE 4,1 46,7 0,0
05/2019 7,2 13,2 20,1 18,6 19,1 24,9 30,4 23,2 40 63 82 1.009 1.018 1.027 SSE 4,5 48,3 9,6
04/2019 7,3 10,6 14,8 14,3 11,6 19,2 27,7 20,4 35 68 97 1.002 1.015 1.028 O 5,6 55,6 180,8
03/2019 4,7 8,3 15,4 14,0 9,3 19,8 27,8 23,1 28 55 93 1.014 1.025 1.032 SSE 3,7 48,3 44,6
02/2019 2,7 6,2 11,1 11,4 11,2 17,9 25,5 22,8 34 62 84 998 1.027 1.035 SSE 4,0 61,1 0,2
01/2019 -1,2 5,7 11,8 10,3 10,4 15,8 20,7 21,9 41 57 80 1.006 1.021 1.033 SO 5,1 59,6 0,6
12/2018 3,2 8,0 13,3 12,5 12,1 18,3 23,5 20,3 36 65 93 1.012 1.028 1.033 OSO 3,7 50,0 17,6
Tots els anys disponibles
2019 -1,2 12,9 25,8 17,7 9,3 23,3 40,7 41,9 0 62 97 0 999 1.035 SSE 4,6 90,1 695,6
2018 0,1 13,2 24,5 17,6 5,8 23,1 38,7 38,6 30 66 98 995 1.019 1.037 SE 4,6 74,1 549,8
Temperatura (°C)
Humitat relativa (%)
Velocitat del vent i ràfega màxima (km/h)
Direcció del vent (°)
Pressió (hPa)
Precipitació (mm)
Nota sobre les dades: s'avisa a l'usuari de la provisionalitat i no oficialitat d'aquestes dades
Logo AVAMET blanc
Web allotjada a Sollutia
Llicència de Creative CommonsLa web d'AVAMET i els seus continguts estan subjectes a una llicència de
Reconeixement - No Comercial - Compartir igual
Últimes estacions: Xixona - Els Ameradors (Soci), Agres - El Tossal (Soci), Xàbia - Bevenguts (MeteoXàbia), Llíria (Aj. Soci/Inforatge), Orihuela - Lo Capitán, Cox & Guardamar del Segura - horta (Meteorihuela), l'Alcúdia - Carriona & el Real de Gandia (Inforatge), Benicàssim - les Vil·les (Soci),  l'Alfàs del Pi - l'Albir (Soci), - - -